Time;durP1;ratioP1;P1;durP2;ratioP2;P2;SDS_P1;SDS_P2;PMS_P1;PMS_P2;Temp;Humidity;BMP_temperature;BMP_pressure;BME280_temperature;BME280_humidity;BME280_pressure;Samples;Min_cycle;Max_cycle;Signal;HPM_P1;HPM_P2
2023/07/30 00:02:08;;;;;;;5.28;2.92;;;;;;;;;;5105115;28;20028;-66
2023/07/30 00:04:33;;;;;;;6.93;3.03;;;;;;;;;;5096640;28;20080;-66
2023/07/30 00:06:58;;;;;;;6.13;3.15;;;;;;;;;;5111585;28;20085;-66
2023/07/30 00:09:23;;;;;;;7.53;3.45;;;;;;;;;;5115440;28;20056;-66
2023/07/30 00:11:49;;;;;;;5.00;2.97;;;;;;;;;;5116468;28;20065;-66
2023/07/30 00:14:14;;;;;;;7.20;3.45;;;;;;;;;;5116240;28;20034;-66
2023/07/30 00:16:39;;;;;;;8.13;3.45;;;;;;;;;;5116844;28;20024;-66
2023/07/30 00:19:04;;;;;;;8.32;3.63;;;;;;;;;;5103675;28;20058;-67
2023/07/30 00:21:30;;;;;;;5.95;3.60;;;;;;;;;;5114193;28;20051;-66
2023/07/30 00:23:55;;;;;;;9.38;3.85;;;;;;;;;;5111770;28;20023;-67
2023/07/30 00:26:20;;;;;;;8.07;4.28;;;;;;;;;;5109450;28;20020;-67
2023/07/30 00:28:45;;;;;;;7.50;3.80;;;;;;;;;;5115544;28;20102;-66
2023/07/30 00:31:11;;;;;;;8.93;4.00;;;;;;;;;;5115273;28;20030;-67
2023/07/30 00:33:36;;;;;;;9.38;4.25;;;;;;;;;;5098481;28;20102;-66
2023/07/30 00:36:02;;;;;;;7.93;4.65;;;;;;;;;;5114087;28;20039;-66
2023/07/30 00:38:27;;;;;;;12.80;4.15;;;;;;;;;;5113933;28;20434;-66
2023/07/30 00:40:52;;;;;;;10.40;4.95;;;;;;;;;;5111776;28;20068;-66
2023/07/30 00:43:18;;;;;;;11.15;5.57;;;;;;;;;;5114124;28;20024;-66
2023/07/30 00:45:44;;;;;;;9.25;5.65;;;;;;;;;;5111936;28;20034;-66
2023/07/30 00:48:10;;;;;;;9.25;5.97;;;;;;;;;;5114753;28;20028;-66
2023/07/30 00:50:35;;;;;;;11.07;6.32;;;;;;;;;;5111901;28;20023;-66
2023/07/30 00:53:01;;;;;;;12.02;7.13;;;;;;;;;;5114145;28;20016;-66
2023/07/30 00:55:26;;;;;;;12.02;6.97;;;;;;;;;;5114342;28;20104;-67
2023/07/30 00:57:51;;;;;;;10.18;7.20;;;;;;;;;;5113488;28;20421;-67
2023/07/30 01:03:21;;;;;;;13.95;8.48;;;;;;;;;;5116384;22;20083;-73
2023/07/30 01:05:46;;;;;;;14.70;9.07;;;;;;;;;;5100679;28;20023;-70
2023/07/30 01:08:11;;;;;;;16.25;8.95;;;;;;;;;;5092652;28;20332;-71
2023/07/30 01:10:37;;;;;;;14.68;8.68;;;;;;;;;;5090285;28;20036;-70
2023/07/30 01:13:03;;;;;;;13.07;9.05;;;;;;;;;;5088931;28;20027;-72
2023/07/30 01:15:28;;;;;;;16.35;8.65;;;;;;;;;;5080055;28;20024;-72
2023/07/30 01:17:54;;;;;;;16.73;9.15;;;;;;;;;;5074995;28;20123;-71
2023/07/30 01:20:20;;;;;;;14.45;9.25;;;;;;;;;;5089731;28;20539;-72
2023/07/30 01:22:46;;;;;;;15.65;9.55;;;;;;;;;;5084227;28;20040;-71
2023/07/30 01:25:11;;;;;;;16.08;9.48;;;;;;;;;;5089406;28;20031;-71
2023/07/30 01:27:38;;;;;;;13.05;8.70;;;;;;;;;;5081512;28;20073;-71
2023/07/30 01:30:10;;;;;;;17.88;8.60;;;;;;;;;;5082777;28;20023;-72
2023/07/30 01:32:35;;;;;;;15.27;7.90;;;;;;;;;;5080045;28;20008;-71
2023/07/30 01:35:02;;;;;;;11.73;7.60;;;;;;;;;;5092313;28;20043;-71
2023/07/30 01:37:29;;;;;;;13.27;7.95;;;;;;;;;;5092186;28;20024;-71
2023/07/30 01:39:54;;;;;;;16.15;7.72;;;;;;;;;;5093320;28;20016;-71
2023/07/30 01:42:20;;;;;;;13.38;7.22;;;;;;;;;;5088401;28;20024;-71
2023/07/30 01:44:45;;;;;;;11.98;6.53;;;;;;;;;;5082956;28;20091;-70
2023/07/30 01:47:10;;;;;;;11.80;6.40;;;;;;;;;;5080495;28;20071;-71
2023/07/30 01:49:35;;;;;;;12.57;6.13;;;;;;;;;;5077021;28;20017;-71
2023/07/30 01:52:00;;;;;;;10.82;5.47;;;;;;;;;;5076230;28;20020;-70
2023/07/30 01:54:26;;;;;;;12.57;5.45;;;;;;;;;;5082746;28;20490;-68
2023/07/30 01:56:51;;;;;;;13.45;5.38;;;;;;;;;;5090863;28;20503;-70
2023/07/30 01:59:17;;;;;;;10.45;5.22;;;;;;;;;;5090305;28;20013;-69
2023/07/30 02:01:43;;;;;;;12.27;5.25;;;;;;;;;;5093502;28;20099;-71
2023/07/30 02:04:08;;;;;;;12.65;5.13;;;;;;;;;;5075734;28;20043;-70
2023/07/30 02:06:33;;;;;;;9.82;4.88;;;;;;;;;;5085135;28;20070;-72
2023/07/30 02:08:59;;;;;;;12.13;5.25;;;;;;;;;;5088973;28;20032;-71
2023/07/30 02:11:24;;;;;;;9.35;4.45;;;;;;;;;;5093062;28;20024;-69
2023/07/30 02:13:49;;;;;;;12.85;5.00;;;;;;;;;;5090393;28;20027;-68
2023/07/30 02:16:14;;;;;;;10.05;4.93;;;;;;;;;;5092796;28;20505;-71
2023/07/30 02:18:40;;;;;;;9.80;4.63;;;;;;;;;;5077772;28;20380;-68
2023/07/30 02:21:05;;;;;;;13.10;5.30;;;;;;;;;;5075448;28;20471;-69
2023/07/30 02:23:30;;;;;;;9.98;4.38;;;;;;;;;;5092036;28;20024;-70
2023/07/30 02:25:55;;;;;;;11.82;4.18;;;;;;;;;;5082202;28;20128;-71
2023/07/30 02:28:21;;;;;;;11.50;4.30;;;;;;;;;;5092263;28;20535;-70
2023/07/30 02:30:46;;;;;;;10.10;3.97;;;;;;;;;;5082010;28;20031;-68
2023/07/30 02:33:11;;;;;;;10.85;3.78;;;;;;;;;;5088458;28;20104;-70
2023/07/30 02:35:36;;;;;;;10.65;3.85;;;;;;;;;;5079912;28;20025;-69
2023/07/30 02:38:02;;;;;;;12.23;3.97;;;;;;;;;;5080766;28;20025;-68
2023/07/30 02:40:27;;;;;;;9.68;3.90;;;;;;;;;;5090362;28;20024;-69
2023/07/30 02:42:52;;;;;;;15.95;4.32;;;;;;;;;;5092675;28;20376;-69
2023/07/30 02:45:17;;;;;;;9.88;3.40;;;;;;;;;;5086222;28;20019;-70
2023/07/30 02:47:43;;;;;;;10.82;3.67;;;;;;;;;;5092490;28;20545;-70
2023/07/30 02:50:08;;;;;;;12.27;4.18;;;;;;;;;;5092603;28;20100;-70
2023/07/30 02:52:33;;;;;;;12.98;3.80;;;;;;;;;;5091294;28;20020;-70
2023/07/30 02:54:59;;;;;;;7.45;3.00;;;;;;;;;;5091949;28;20106;-68
2023/07/30 02:57:24;;;;;;;9.15;3.17;;;;;;;;;;5088196;28;20059;-67
2023/07/30 02:59:49;;;;;;;8.52;3.38;;;;;;;;;;5090422;28;20023;-70
2023/07/30 03:02:14;;;;;;;16.85;4.60;;;;;;;;;;5092640;28;20024;-70
2023/07/30 03:04:40;;;;;;;7.28;3.10;;;;;;;;;;5090735;28;20620;-71
2023/07/30 03:07:05;;;;;;;15.02;3.45;;;;;;;;;;5090291;28;20062;-69
2023/07/30 03:09:31;;;;;;;10.35;3.30;;;;;;;;;;5092397;28;20078;-67
2023/07/30 03:11:56;;;;;;;12.48;3.40;;;;;;;;;;5088808;28;20139;-68
2023/07/30 03:14:21;;;;;;;11.10;3.30;;;;;;;;;;5088557;28;20107;-71
2023/07/30 03:16:47;;;;;;;12.63;3.95;;;;;;;;;;5077858;28;20020;-70
2023/07/30 03:19:12;;;;;;;9.13;3.53;;;;;;;;;;5091821;28;20028;-72
2023/07/30 03:21:37;;;;;;;11.25;3.60;;;;;;;;;;5092631;28;20058;-71
2023/07/30 03:24:03;;;;;;;9.50;3.20;;;;;;;;;;5090934;28;20340;-72
2023/07/30 03:26:28;;;;;;;10.07;3.60;;;;;;;;;;5087081;28;20467;-71
2023/07/30 03:28:53;;;;;;;12.63;3.85;;;;;;;;;;5110134;28;20514;-71
2023/07/30 03:31:18;;;;;;;10.10;3.80;;;;;;;;;;5094258;28;20016;-72
2023/07/30 03:33:44;;;;;;;12.30;3.60;;;;;;;;;;5084332;28;20027;-72
2023/07/30 03:36:14;;;;;;;13.80;3.30;;;;;;;;;;5093126;28;20020;-70
2023/07/30 03:38:40;;;;;;;10.43;3.38;;;;;;;;;;5096478;28;20032;-73
2023/07/30 03:41:06;;;;;;;10.57;3.25;;;;;;;;;;5096845;28;20471;-74
2023/07/30 03:43:31;;;;;;;8.45;3.33;;;;;;;;;;5095873;28;20027;-72
2023/07/30 03:45:56;;;;;;;8.70;3.13;;;;;;;;;;5079480;28;20532;-74
2023/07/30 03:48:22;;;;;;;13.63;3.40;;;;;;;;;;5093361;28;20035;-74
2023/07/30 03:50:47;;;;;;;10.52;3.30;;;;;;;;;;5090571;28;20028;-74
2023/07/30 03:53:12;;;;;;;12.23;3.90;;;;;;;;;;5088900;28;20048;-73
2023/07/30 03:55:38;;;;;;;15.70;3.85;;;;;;;;;;5092527;28;20019;-74
2023/07/30 03:58:03;;;;;;;13.93;3.55;;;;;;;;;;5096142;28;20519;-68
2023/07/30 04:00:29;;;;;;;10.57;3.35;;;;;;;;;;5088263;28;20024;-73
2023/07/30 04:02:54;;;;;;;10.38;3.40;;;;;;;;;;5088341;28;20052;-74
2023/07/30 04:05:19;;;;;;;10.23;3.30;;;;;;;;;;5092819;28;20067;-74
2023/07/30 04:07:44;;;;;;;12.45;3.45;;;;;;;;;;5086705;28;20047;-69
2023/07/30 04:10:10;;;;;;;11.40;3.35;;;;;;;;;;5095575;28;20024;-70
2023/07/30 04:12:35;;;;;;;10.98;3.60;;;;;;;;;;5094436;28;20030;-69
2023/07/30 04:15:00;;;;;;;13.05;3.88;;;;;;;;;;5092999;28;20521;-74
2023/07/30 04:17:26;;;;;;;12.23;3.63;;;;;;;;;;5095436;28;20028;-73
2023/07/30 04:19:51;;;;;;;11.57;3.85;;;;;;;;;;5095546;28;20467;-72
2023/07/30 04:22:16;;;;;;;9.07;3.30;;;;;;;;;;5095127;28;20479;-71
2023/07/30 04:24:41;;;;;;;11.23;3.50;;;;;;;;;;5094505;28;20407;-72
2023/07/30 04:27:07;;;;;;;13.48;4.03;;;;;;;;;;5083668;28;20073;-74
2023/07/30 04:29:32;;;;;;;8.25;3.42;;;;;;;;;;5094508;28;20423;-70
2023/07/30 04:31:57;;;;;;;18.38;3.60;;;;;;;;;;5086008;28;20073;-71
2023/07/30 04:34:22;;;;;;;10.65;3.30;;;;;;;;;;5080291;28;20114;-71
2023/07/30 04:36:48;;;;;;;11.93;3.70;;;;;;;;;;5080033;28;20388;-69
2023/07/30 04:39:13;;;;;;;15.75;3.25;;;;;;;;;;5084302;28;20360;-68
2023/07/30 04:41:38;;;;;;;11.93;3.13;;;;;;;;;;5094160;28;20391;-70
2023/07/30 04:44:03;;;;;;;9.45;3.00;;;;;;;;;;5093638;28;20039;-70
2023/07/30 04:46:29;;;;;;;8.73;3.00;;;;;;;;;;5081575;28;20027;-68
2023/07/30 04:48:55;;;;;;;6.80;2.55;;;;;;;;;;5095423;28;20069;-67
2023/07/30 04:51:21;;;;;;;9.00;3.13;;;;;;;;;;5095611;28;20069;-68
2023/07/30 04:53:46;;;;;;;11.23;2.92;;;;;;;;;;5091879;28;20070;-69
2023/07/30 04:56:11;;;;;;;6.80;2.65;;;;;;;;;;5082025;28;20039;-69
2023/07/30 04:58:36;;;;;;;11.25;2.80;;;;;;;;;;5087619;28;20107;-69
2023/07/30 05:01:01;;;;;;;11.48;3.60;;;;;;;;;;5080105;28;20059;-68
2023/07/30 05:03:27;;;;;;;9.50;2.60;;;;;;;;;;5094431;28;20055;-68
2023/07/30 05:05:53;;;;;;;11.48;2.83;;;;;;;;;;5084738;28;20024;-68
2023/07/30 05:08:18;;;;;;;11.45;2.90;;;;;;;;;;5090871;28;20032;-67
2023/07/30 05:10:43;;;;;;;9.00;2.63;;;;;;;;;;5096498;28;20032;-67
2023/07/30 05:13:08;;;;;;;9.75;2.50;;;;;;;;;;5088695;28;20100;-66
2023/07/30 05:15:34;;;;;;;11.55;3.10;;;;;;;;;;5088447;28;20035;-67
2023/07/30 05:17:59;;;;;;;10.73;3.40;;;;;;;;;;5092674;28;20086;-67
2023/07/30 05:20:24;;;;;;;12.75;2.75;;;;;;;;;;5092810;28;20069;-66
2023/07/30 05:22:49;;;;;;;12.38;2.90;;;;;;;;;;5098759;28;20020;-66
2023/07/30 05:25:15;;;;;;;9.05;2.53;;;;;;;;;;5085429;28;20046;-67
2023/07/30 05:27:40;;;;;;;10.68;2.72;;;;;;;;;;5084044;28;20028;-66
2023/07/30 05:30:05;;;;;;;11.98;2.92;;;;;;;;;;5092847;28;20031;-66
2023/07/30 05:32:31;;;;;;;11.10;3.10;;;;;;;;;;5093608;28;20031;-65
2023/07/30 05:34:56;;;;;;;10.05;2.90;;;;;;;;;;5091552;28;20035;-67
2023/07/30 05:37:21;;;;;;;9.02;2.90;;;;;;;;;;5094172;28;20035;-67
2023/07/30 05:39:46;;;;;;;10.80;2.70;;;;;;;;;;5088621;28;20036;-67
2023/07/30 05:42:11;;;;;;;10.23;3.03;;;;;;;;;;5089043;28;20077;-67
2023/07/30 05:44:37;;;;;;;14.23;2.88;;;;;;;;;;5076779;28;20028;-67
2023/07/30 05:47:02;;;;;;;11.60;2.90;;;;;;;;;;5089365;28;20032;-67
2023/07/30 05:49:28;;;;;;;15.27;3.30;;;;;;;;;;5094575;28;20099;-67
2023/07/30 05:51:53;;;;;;;8.35;2.83;;;;;;;;;;5094381;28;20032;-67
2023/07/30 05:54:18;;;;;;;10.45;2.75;;;;;;;;;;5094674;28;20430;-67
2023/07/30 05:56:43;;;;;;;9.30;2.63;;;;;;;;;;5085344;28;20486;-66
2023/07/30 05:59:08;;;;;;;9.27;2.42;;;;;;;;;;5093706;28;20396;-68
2023/07/30 06:01:34;;;;;;;10.73;3.08;;;;;;;;;;5088613;28;20036;-68
2023/07/30 06:03:59;;;;;;;9.90;2.60;;;;;;;;;;5090065;28;20070;-67
2023/07/30 06:06:27;;;;;;;10.02;2.83;;;;;;;;;;5087212;28;20426;-67
2023/07/30 06:08:52;;;;;;;8.90;2.65;;;;;;;;;;5077882;28;20103;-68
2023/07/30 06:11:18;;;;;;;9.48;3.10;;;;;;;;;;5090048;28;20147;-67
2023/07/30 06:13:43;;;;;;;10.57;3.00;;;;;;;;;;5080372;28;20032;-67
2023/07/30 06:16:09;;;;;;;12.55;3.08;;;;;;;;;;5088294;28;20039;-67
2023/07/30 06:18:34;;;;;;;12.25;3.17;;;;;;;;;;5094240;28;20034;-67
2023/07/30 06:20:59;;;;;;;10.02;3.20;;;;;;;;;;5093636;28;20464;-68
2023/07/30 06:23:25;;;;;;;12.32;3.00;;;;;;;;;;5094077;28;20126;-67
2023/07/30 06:25:50;;;;;;;10.77;2.75;;;;;;;;;;5092280;28;20051;-68
2023/07/30 06:28:15;;;;;;;9.30;2.90;;;;;;;;;;5093718;28;20051;-67
2023/07/30 06:30:40;;;;;;;10.27;2.70;;;;;;;;;;5091236;28;20020;-68
2023/07/30 06:33:06;;;;;;;8.90;3.00;;;;;;;;;;5092826;28;20008;-68
2023/07/30 06:35:31;;;;;;;9.65;2.63;;;;;;;;;;5092870;28;20028;-68
2023/07/30 06:37:56;;;;;;;11.27;3.20;;;;;;;;;;5092824;28;20483;-67
2023/07/30 06:40:21;;;;;;;10.85;3.35;;;;;;;;;;5087658;28;21041;-67
2023/07/30 06:42:46;;;;;;;14.15;3.20;;;;;;;;;;5079476;28;20019;-67
2023/07/30 06:45:12;;;;;;;7.25;2.55;;;;;;;;;;5085488;28;20031;-68
2023/07/30 06:47:37;;;;;;;12.55;3.10;;;;;;;;;;5113984;28;20035;-70
2023/07/30 06:50:03;;;;;;;11.23;3.30;;;;;;;;;;5079854;28;20065;-68
2023/07/30 06:52:29;;;;;;;9.88;2.88;;;;;;;;;;5075316;28;20024;-68
2023/07/30 06:54:54;;;;;;;12.98;3.30;;;;;;;;;;5087407;28;20035;-66
2023/07/30 06:57:19;;;;;;;13.63;3.30;;;;;;;;;;5091620;28;20094;-68
2023/07/30 06:59:44;;;;;;;12.13;3.00;;;;;;;;;;5090680;28;20051;-67
2023/07/30 07:02:09;;;;;;;13.38;3.60;;;;;;;;;;5092413;28;20023;-67
2023/07/30 07:04:35;;;;;;;9.00;3.35;;;;;;;;;;5110160;28;20077;-67
2023/07/30 07:07:03;;;;;;;14.88;3.30;;;;;;;;;;5075287;28;20575;-67
2023/07/30 07:09:28;;;;;;;12.40;4.00;;;;;;;;;;5072660;28;20050;-68
2023/07/30 07:11:53;;;;;;;13.15;4.80;;;;;;;;;;5079484;28;20020;-67
2023/07/30 07:14:19;;;;;;;14.05;4.07;;;;;;;;;;5079407;28;20436;-67
2023/07/30 07:16:44;;;;;;;12.52;3.65;;;;;;;;;;5092782;28;20016;-68
2023/07/30 07:19:09;;;;;;;16.08;4.03;;;;;;;;;;5095766;28;20094;-67
2023/07/30 07:21:34;;;;;;;16.80;5.28;;;;;;;;;;5094003;28;20077;-67
2023/07/30 07:23:59;;;;;;;17.35;4.85;;;;;;;;;;5092242;28;20024;-67
2023/07/30 07:26:25;;;;;;;15.23;5.47;;;;;;;;;;5092760;28;20100;-66
2023/07/30 07:28:50;;;;;;;15.73;4.97;;;;;;;;;;5085687;28;20494;-68
2023/07/30 07:31:15;;;;;;;17.00;5.10;;;;;;;;;;5077699;28;20388;-66
2023/07/30 07:33:40;;;;;;;16.20;5.18;;;;;;;;;;5082815;28;20017;-67
2023/07/30 07:36:07;;;;;;;14.98;5.18;;;;;;;;;;5076932;28;20027;-68
2023/07/30 07:38:32;;;;;;;14.82;5.07;;;;;;;;;;5082028;28;20039;-66
2023/07/30 07:40:58;;;;;;;16.48;4.85;;;;;;;;;;5080679;28;20477;-67
2023/07/30 07:43:24;;;;;;;17.77;5.38;;;;;;;;;;5080318;28;20442;-66
2023/07/30 07:45:49;;;;;;;16.40;5.57;;;;;;;;;;5091025;28;20115;-67
2023/07/30 07:48:14;;;;;;;16.15;5.53;;;;;;;;;;5093010;28;20036;-66
2023/07/30 07:50:39;;;;;;;15.93;6.25;;;;;;;;;;5087641;28;20388;-66
2023/07/30 07:53:04;;;;;;;17.02;5.90;;;;;;;;;;5072833;28;20051;-66
2023/07/30 07:55:30;;;;;;;16.98;5.50;;;;;;;;;;5072767;28;20388;-66
2023/07/30 07:57:55;;;;;;;18.50;6.32;;;;;;;;;;5090249;28;20486;-67
2023/07/30 08:00:20;;;;;;;17.80;5.55;;;;;;;;;;5087331;28;20035;-67
2023/07/30 08:02:45;;;;;;;17.30;5.47;;;;;;;;;;5092301;28;20020;-68
2023/07/30 08:05:11;;;;;;;17.35;6.10;;;;;;;;;;5092225;28;20527;-68
2023/07/30 08:07:36;;;;;;;20.48;5.65;;;;;;;;;;5092848;28;20032;-69
2023/07/30 08:10:01;;;;;;;16.33;6.03;;;;;;;;;;5093494;28;20028;-68
2023/07/30 08:12:26;;;;;;;15.90;5.25;;;;;;;;;;5082729;28;20373;-68
2023/07/30 08:14:52;;;;;;;19.90;6.22;;;;;;;;;;5080067;28;20038;-68
2023/07/30 08:17:18;;;;;;;15.02;5.82;;;;;;;;;;5091934;28;20392;-69
2023/07/30 08:19:43;;;;;;;19.35;6.13;;;;;;;;;;5091013;28;20024;-68
2023/07/30 08:22:08;;;;;;;17.33;6.13;;;;;;;;;;5082965;28;20031;-68
2023/07/30 08:24:34;;;;;;;15.60;5.50;;;;;;;;;;5076061;28;20215;-69
2023/07/30 08:26:59;;;;;;;18.70;5.78;;;;;;;;;;5075710;28;20060;-68
2023/07/30 08:29:24;;;;;;;18.05;5.80;;;;;;;;;;5080718;28;20034;-68
2023/07/30 08:31:49;;;;;;;18.15;5.30;;;;;;;;;;5091416;28;20045;-68
2023/07/30 08:34:15;;;;;;;16.48;5.40;;;;;;;;;;5093510;28;20024;-69
2023/07/30 08:36:40;;;;;;;17.83;5.97;;;;;;;;;;5085845;28;20020;-67
2023/07/30 08:39:05;;;;;;;15.95;5.47;;;;;;;;;;5098500;28;20066;-69
2023/07/30 08:41:31;;;;;;;15.65;5.47;;;;;;;;;;5097283;28;20035;-68
2023/07/30 08:43:56;;;;;;;17.95;5.60;;;;;;;;;;5099083;28;20607;-68
2023/07/30 08:46:21;;;;;;;17.88;5.60;;;;;;;;;;5097492;28;20027;-68
2023/07/30 08:48:47;;;;;;;15.82;4.93;;;;;;;;;;5094994;28;20026;-69
2023/07/30 08:51:12;;;;;;;13.32;4.88;;;;;;;;;;5089982;28;20588;-69
2023/07/30 08:53:38;;;;;;;15.20;4.95;;;;;;;;;;5095433;28;20051;-68
2023/07/30 08:56:04;;;;;;;15.05;5.00;;;;;;;;;;5094110;28;20024;-68
2023/07/30 08:58:32;;;;;;;15.48;4.78;;;;;;;;;;5082459;28;20111;-68
2023/07/30 09:00:58;;;;;;;19.90;5.32;;;;;;;;;;5092317;28;20035;-68
2023/07/30 09:03:26;;;;;;;15.13;5.15;;;;;;;;;;5084971;28;20020;-68
2023/07/30 09:05:52;;;;;;;12.45;4.55;;;;;;;;;;5087344;28;20035;-68
2023/07/30 09:08:17;;;;;;;13.75;4.40;;;;;;;;;;5088499;28;20016;-68
2023/07/30 09:10:43;;;;;;;20.38;6.05;;;;;;;;;;5092381;28;20051;-68
2023/07/30 09:13:08;;;;;;;14.23;4.75;;;;;;;;;;5087778;28;20025;-69
2023/07/30 09:15:37;;;;;;;15.23;4.40;;;;;;;;;;5078015;28;20400;-68
2023/07/30 09:18:03;;;;;;;13.85;4.60;;;;;;;;;;5094322;28;20027;-69
2023/07/30 09:20:28;;;;;;;18.02;4.80;;;;;;;;;;5098603;28;20391;-68
2023/07/30 09:22:56;;;;;;;15.35;4.85;;;;;;;;;;5100338;28;20043;-69
2023/07/30 09:25:21;;;;;;;19.63;4.70;;;;;;;;;;5091419;28;20028;-69
2023/07/30 09:27:52;;;;;;;13.55;4.28;;;;;;;;;;5097312;28;20357;-68
2023/07/30 09:30:22;;;;;;;13.88;4.50;;;;;;;;;;5081330;28;20016;-68
2023/07/30 09:32:50;;;;;;;16.63;4.90;;;;;;;;;;5091609;28;20061;-69
2023/07/30 09:35:17;;;;;;;15.93;4.28;;;;;;;;;;5082347;28;20024;-68
2023/07/30 09:37:42;;;;;;;15.90;4.25;;;;;;;;;;5102508;28;20039;-68
2023/07/30 09:40:08;;;;;;;17.75;4.78;;;;;;;;;;5091630;28;20488;-69
2023/07/30 09:42:37;;;;;;;14.82;4.40;;;;;;;;;;5094022;28;20507;-69
2023/07/30 09:45:03;;;;;;;9.82;3.47;;;;;;;;;;5087941;28;20027;-69
2023/07/30 09:47:30;;;;;;;15.57;4.00;;;;;;;;;;5100312;28;20031;-69
2023/07/30 09:49:55;;;;;;;11.68;3.80;;;;;;;;;;5110259;28;20026;-68
2023/07/30 09:52:21;;;;;;;15.02;4.32;;;;;;;;;;5092963;28;20344;-68
2023/07/30 09:54:49;;;;;;;11.80;3.80;;;;;;;;;;5101135;28;20051;-69
2023/07/30 09:57:15;;;;;;;15.57;4.15;;;;;;;;;;5087741;28;20020;-69
2023/07/30 09:59:40;;;;;;;10.93;3.60;;;;;;;;;;5089407;28;20015;-69
2023/07/30 10:02:06;;;;;;;18.77;4.10;;;;;;;;;;5085144;28;20152;-68
2023/07/30 10:04:32;;;;;;;13.38;4.57;;;;;;;;;;5085207;28;20048;-68
2023/07/30 10:07:08;;;;;;;15.00;3.80;;;;;;;;;;5088825;28;20357;-71
2023/07/30 10:09:42;;;;;;;12.48;3.72;;;;;;;;;;5080016;28;20024;-70
2023/07/30 10:12:08;;;;;;;11.65;3.33;;;;;;;;;;5092462;28;20046;-71
2023/07/30 10:14:34;;;;;;;11.25;3.50;;;;;;;;;;5083319;28;20021;-69
2023/07/30 10:17:00;;;;;;;10.95;2.80;;;;;;;;;;5089324;28;20535;-69
2023/07/30 10:19:26;;;;;;;10.18;3.50;;;;;;;;;;5092140;28;20372;-68
2023/07/30 10:21:51;;;;;;;11.30;3.25;;;;;;;;;;5092440;28;20031;-69
2023/07/30 10:24:16;;;;;;;8.98;2.85;;;;;;;;;;5081961;28;20427;-69
2023/07/30 10:26:41;;;;;;;9.55;3.47;;;;;;;;;;5092889;28;20375;-69
2023/07/30 10:29:11;;;;;;;13.35;3.08;;;;;;;;;;5099136;28;20020;-69
2023/07/30 10:31:40;;;;;;;10.02;3.30;;;;;;;;;;5088470;28;20044;-69
2023/07/30 10:34:10;;;;;;;12.75;3.17;;;;;;;;;;5082953;28;20044;-68
2023/07/30 10:36:42;;;;;;;7.95;2.97;;;;;;;;;;5087819;28;20022;-69
2023/07/30 10:39:27;;;;;;;11.52;3.47;;;;;;;;;;5086876;28;20066;-69
2023/07/30 10:41:56;;;;;;;13.63;3.63;;;;;;;;;;5091245;28;20548;-70
2023/07/30 10:44:23;;;;;;;9.55;3.08;;;;;;;;;;5089109;28;20099;-69
2023/07/30 10:46:48;;;;;;;12.65;4.60;;;;;;;;;;5087816;28;20704;-68
2023/07/30 10:49:13;;;;;;;10.25;3.20;;;;;;;;;;5093058;28;20024;-69
2023/07/30 10:51:39;;;;;;;10.70;3.10;;;;;;;;;;5086754;28;20020;-69
2023/07/30 10:54:06;;;;;;;10.45;2.80;;;;;;;;;;5092476;28;20061;-70
2023/07/30 10:56:31;;;;;;;11.07;3.28;;;;;;;;;;5090872;28;20103;-69
2023/07/30 10:58:57;;;;;;;10.52;2.70;;;;;;;;;;5094237;28;20166;-70
2023/07/30 11:01:24;;;;;;;9.07;2.90;;;;;;;;;;5084936;28;20480;-69
2023/07/30 11:03:50;;;;;;;7.05;2.10;;;;;;;;;;5081697;28;20044;-68
2023/07/30 11:06:21;;;;;;;8.73;2.60;;;;;;;;;;5088153;28;20022;-70
2023/07/30 11:08:46;;;;;;;7.82;2.40;;;;;;;;;;5088819;28;20405;-68
2023/07/30 11:11:11;;;;;;;8.45;2.45;;;;;;;;;;5077327;28;20024;-69
2023/07/30 11:13:40;;;;;;;7.57;2.40;;;;;;;;;;5088345;28;20032;-68
2023/07/30 11:16:09;;;;;;;8.25;2.45;;;;;;;;;;5072739;28;20029;-69
2023/07/30 11:18:35;;;;;;;8.60;2.65;;;;;;;;;;5088726;28;20073;-69
2023/07/30 11:21:03;;;;;;;7.32;2.53;;;;;;;;;;5074186;28;20456;-69
2023/07/30 11:23:29;;;;;;;7.45;2.25;;;;;;;;;;5089990;28;20441;-69
2023/07/30 11:25:54;;;;;;;7.47;2.08;;;;;;;;;;5090413;28;20058;-68
2023/07/30 11:28:29;;;;;;;8.40;2.20;;;;;;;;;;5093074;28;20020;-68
2023/07/30 11:30:54;;;;;;;9.27;2.50;;;;;;;;;;5075636;28;20101;-70
2023/07/30 11:33:19;;;;;;;7.15;2.05;;;;;;;;;;5081552;28;20028;-68
2023/07/30 11:35:45;;;;;;;6.05;2.20;;;;;;;;;;5085101;28;20028;-68
2023/07/30 11:38:10;;;;;;;5.15;1.98;;;;;;;;;;5081319;28;20046;-67
2023/07/30 11:40:36;;;;;;;7.70;2.15;;;;;;;;;;5087436;28;20031;-67
2023/07/30 11:43:02;;;;;;;7.20;2.30;;;;;;;;;;5092082;28;20531;-67
2023/07/30 11:45:27;;;;;;;6.00;2.25;;;;;;;;;;5093432;28;20023;-67
2023/07/30 11:47:52;;;;;;;8.57;2.28;;;;;;;;;;5116641;28;20023;-68
2023/07/30 11:50:17;;;;;;;7.68;2.42;;;;;;;;;;5117237;28;20019;-68
2023/07/30 11:52:53;;;;;;;7.57;2.08;;;;;;;;;;5117364;28;20024;-67
2023/07/30 11:55:19;;;;;;;6.40;2.15;;;;;;;;;;5093753;28;20066;-67
2023/07/30 11:57:44;;;;;;;8.98;2.70;;;;;;;;;;5096960;28;20476;-67
2023/07/30 12:00:10;;;;;;;12.45;3.25;;;;;;;;;;5087855;28;20031;-65
2023/07/30 12:02:36;;;;;;;10.52;3.95;;;;;;;;;;5076208;28;20025;-66
2023/07/30 12:05:03;;;;;;;15.73;4.47;;;;;;;;;;5077168;28;20130;-67
2023/07/30 12:07:28;;;;;;;18.17;5.03;;;;;;;;;;5092132;28;20525;-67
2023/07/30 12:09:54;;;;;;;13.35;3.90;;;;;;;;;;5096628;28;20017;-67
2023/07/30 12:12:19;;;;;;;12.18;3.92;;;;;;;;;;5096606;28;20024;-67
2023/07/30 12:14:44;;;;;;;11.02;3.70;;;;;;;;;;5091470;28;20103;-67
2023/07/30 12:17:09;;;;;;;10.60;3.60;;;;;;;;;;5084284;28;20471;-67
2023/07/30 12:19:37;;;;;;;8.10;3.10;;;;;;;;;;5096219;28;20012;-67
2023/07/30 12:22:03;;;;;;;10.75;3.85;;;;;;;;;;5096179;28;20012;-67
2023/07/30 12:24:28;;;;;;;7.43;2.88;;;;;;;;;;5094590;28;20478;-67
2023/07/30 12:26:53;;;;;;;9.43;2.90;;;;;;;;;;5077052;28;20484;-68
2023/07/30 12:29:18;;;;;;;7.35;2.63;;;;;;;;;;5094690;28;20020;-68
2023/07/30 12:31:45;;;;;;;7.90;2.95;;;;;;;;;;5078137;28;20017;-68
2023/07/30 12:34:10;;;;;;;6.25;1.88;;;;;;;;;;5084191;28;20020;-68
2023/07/30 12:36:36;;;;;;;5.70;2.00;;;;;;;;;;5094926;28;20528;-68
2023/07/30 12:39:01;;;;;;;5.30;1.88;;;;;;;;;;5095151;28;20039;-68
2023/07/30 12:41:26;;;;;;;7.43;2.08;;;;;;;;;;5083978;28;20020;-68
2023/07/30 12:43:52;;;;;;;6.07;1.83;;;;;;;;;;5095940;28;20032;-68
2023/07/30 12:46:18;;;;;;;5.95;1.50;;;;;;;;;;5079751;28;20458;-68
2023/07/30 12:48:43;;;;;;;7.30;1.77;;;;;;;;;;5075640;28;20112;-68
2023/07/30 12:51:08;;;;;;;7.05;1.90;;;;;;;;;;5076868;28;20435;-69
2023/07/30 12:53:34;;;;;;;8.05;1.95;;;;;;;;;;5075435;28;20418;-68
2023/07/30 12:55:59;;;;;;;8.30;2.08;;;;;;;;;;5077339;28;20492;-67
2023/07/30 12:58:24;;;;;;;8.00;2.10;;;;;;;;;;5093911;28;20035;-67
2023/07/30 13:00:49;;;;;;;5.22;2.53;;;;;;;;;;5095502;28;20024;-67
2023/07/30 13:03:14;;;;;;;5.88;1.80;;;;;;;;;;5109406;28;20035;-68
2023/07/30 13:05:40;;;;;;;6.43;1.88;;;;;;;;;;5116055;28;20030;-68
2023/07/30 13:08:05;;;;;;;8.52;2.20;;;;;;;;;;5100554;28;20032;-67
2023/07/30 13:10:30;;;;;;;7.60;1.92;;;;;;;;;;5075338;28;20032;-68
2023/07/30 13:12:55;;;;;;;6.88;2.00;;;;;;;;;;5075143;28;20024;-68
2023/07/30 13:15:21;;;;;;;5.78;1.77;;;;;;;;;;5096820;28;20028;-68
2023/07/30 13:17:46;;;;;;;8.32;1.95;;;;;;;;;;5095329;28;20024;-68
2023/07/30 13:20:11;;;;;;;7.82;1.90;;;;;;;;;;5088379;28;20032;-68
2023/07/30 13:22:36;;;;;;;7.32;1.88;;;;;;;;;;5105884;28;20028;-68
2023/07/30 13:25:01;;;;;;;6.03;1.50;;;;;;;;;;5089761;28;20034;-68
2023/07/30 13:27:27;;;;;;;6.80;1.50;;;;;;;;;;5085670;28;20110;-67
2023/07/30 13:29:52;;;;;;;5.35;1.63;;;;;;;;;;5093909;28;20417;-69
2023/07/30 13:32:17;;;;;;;8.27;1.80;;;;;;;;;;5075499;28;20476;-68
2023/07/30 13:34:43;;;;;;;6.53;1.38;;;;;;;;;;5085923;28;20015;-67
2023/07/30 13:37:08;;;;;;;6.90;1.63;;;;;;;;;;5107072;28;20020;-68
2023/07/30 13:39:33;;;;;;;5.55;1.80;;;;;;;;;;5097969;28;20020;-67
2023/07/30 13:41:59;;;;;;;7.95;1.85;;;;;;;;;;5090482;28;20103;-68
2023/07/30 13:44:24;;;;;;;6.35;1.92;;;;;;;;;;5094665;28;20044;-68
2023/07/30 13:46:50;;;;;;;7.15;2.17;;;;;;;;;;5095611;28;20020;-67
2023/07/30 13:49:15;;;;;;;8.20;2.47;;;;;;;;;;5111080;28;20039;-67
2023/07/30 13:51:40;;;;;;;8.85;2.40;;;;;;;;;;5114708;28;20379;-68
2023/07/30 13:54:07;;;;;;;6.53;2.20;;;;;;;;;;5092620;28;20020;-68
2023/07/30 13:56:33;;;;;;;8.50;2.40;;;;;;;;;;5094331;28;20023;-68
2023/07/30 13:58:58;;;;;;;7.97;2.22;;;;;;;;;;5094093;28;20023;-68
2023/07/30 14:01:23;;;;;;;7.22;2.40;;;;;;;;;;5094561;28;20456;-68
2023/07/30 14:03:49;;;;;;;6.72;2.13;;;;;;;;;;5093939;28;20039;-68
2023/07/30 14:06:14;;;;;;;7.38;2.38;;;;;;;;;;5094350;28;20459;-68
2023/07/30 14:08:39;;;;;;;9.27;2.35;;;;;;;;;;5093931;28;20401;-68
2023/07/30 14:11:05;;;;;;;7.10;2.00;;;;;;;;;;5094021;28;20020;-69
2023/07/30 14:13:30;;;;;;;6.50;2.03;;;;;;;;;;5099264;28;20047;-69
2023/07/30 14:15:55;;;;;;;9.68;2.00;;;;;;;;;;5089876;28;20384;-69
2023/07/30 14:18:21;;;;;;;10.40;2.15;;;;;;;;;;5073741;28;20079;-69
2023/07/30 14:20:46;;;;;;;8.68;1.90;;;;;;;;;;5096472;28;20031;-69
2023/07/30 14:23:12;;;;;;;7.38;1.83;;;;;;;;;;5114619;28;20066;-68
2023/07/30 14:25:37;;;;;;;9.45;2.00;;;;;;;;;;5087109;28;20021;-69
2023/07/30 14:28:02;;;;;;;5.32;1.67;;;;;;;;;;5082008;28;20020;-68
2023/07/30 14:30:28;;;;;;;8.30;2.53;;;;;;;;;;5094127;28;20384;-67